Terminal Aerodrome Forecast
Issued by NWS Sterling, VA

Current Version | Previous Version | Graphics & Text | Print | Product List | Glossary On
Versions: 1 2 3 4 5 6 7 8 9 10 11 12 13 14
000
FTUS41 KLWX 211728
TAFMRB
TAF
KMRB 211728Z 2118/2218 31006KT P6SM BKN040
     FM212000 31008KT P6SM SCT040
     FM220200 31006KT P6SM BKN080
     FM220700 31010G18KT P6SM BKN040
     FM220900 32013G24KT P6SM SCT050=

USA.gov is the U.S. government's official web portal to all federal, state and local government web resources and services.